sensor_id;sensor_type;location;lat;lon;timestamp;P1;durP1;ratioP1;P2;durP2;ratioP2
18503;SDS011;9381;54.244;10.074;2023-07-22T00:01:46;17.98;;;11.85;;
18503;SDS011;9381;54.244;10.074;2023-07-22T00:06:46;13.95;;;10.93;;
18503;SDS011;9381;54.244;10.074;2023-07-22T00:11:48;14.13;;;10.80;;
18503;SDS011;9381;54.244;10.074;2023-07-22T00:16:49;16.03;;;10.53;;
18503;SDS011;9381;54.244;10.074;2023-07-22T00:21:49;10.77;;;9.18;;
18503;SDS011;9381;54.244;10.074;2023-07-22T00:26:52;14.77;;;9.37;;
18503;SDS011;9381;54.244;10.074;2023-07-22T00:31:52;11.60;;;9.70;;
18503;SDS011;9381;54.244;10.074;2023-07-22T00:36:53;10.53;;;8.57;;
18503;SDS011;9381;54.244;10.074;2023-07-22T00:41:53;8.90;;;6.80;;
18503;SDS011;9381;54.244;10.074;2023-07-22T00:46:54;10.30;;;6.47;;
18503;SDS011;9381;54.244;10.074;2023-07-22T00:51:58;10.43;;;6.63;;
18503;SDS011;9381;54.244;10.074;2023-07-22T00:57:02;8.87;;;7.00;;
18503;SDS011;9381;54.244;10.074;2023-07-22T01:02:02;8.20;;;6.40;;
18503;SDS011;9381;54.244;10.074;2023-07-22T01:07:03;10.40;;;6.47;;
18503;SDS011;9381;54.244;10.074;2023-07-22T01:12:09;10.83;;;7.80;;
18503;SDS011;9381;54.244;10.074;2023-07-22T01:17:10;13.37;;;8.17;;
18503;SDS011;9381;54.244;10.074;2023-07-22T01:22:13;11.80;;;7.07;;
18503;SDS011;9381;54.244;10.074;2023-07-22T01:27:13;10.93;;;7.43;;
18503;SDS011;9381;54.244;10.074;2023-07-22T01:32:14;10.17;;;7.77;;
18503;SDS011;9381;54.244;10.074;2023-07-22T01:37:14;11.73;;;7.25;;
18503;SDS011;9381;54.244;10.074;2023-07-22T01:42:15;11.00;;;6.72;;
18503;SDS011;9381;54.244;10.074;2023-07-22T01:47:15;10.65;;;6.55;;
18503;SDS011;9381;54.244;10.074;2023-07-22T01:52:16;8.40;;;5.50;;
18503;SDS011;9381;54.244;10.074;2023-07-22T01:57:16;8.15;;;5.75;;
18503;SDS011;9381;54.244;10.074;2023-07-22T02:02:16;7.88;;;5.90;;
18503;SDS011;9381;54.244;10.074;2023-07-22T02:07:16;9.33;;;5.70;;
18503;SDS011;9381;54.244;10.074;2023-07-22T02:12:17;9.07;;;6.00;;
18503;SDS011;9381;54.244;10.074;2023-07-22T02:17:18;11.67;;;5.03;;
18503;SDS011;9381;54.244;10.074;2023-07-22T02:22:18;9.57;;;5.10;;
18503;SDS011;9381;54.244;10.074;2023-07-22T02:27:18;8.73;;;5.60;;
18503;SDS011;9381;54.244;10.074;2023-07-22T02:32:19;6.93;;;5.32;;
18503;SDS011;9381;54.244;10.074;2023-07-22T02:37:20;8.87;;;5.13;;
18503;SDS011;9381;54.244;10.074;2023-07-22T02:42:20;9.32;;;5.55;;
18503;SDS011;9381;54.244;10.074;2023-07-22T02:47:20;7.80;;;5.50;;
18503;SDS011;9381;54.244;10.074;2023-07-22T02:52:21;12.00;;;5.03;;
18503;SDS011;9381;54.244;10.074;2023-07-22T02:57:21;6.82;;;4.30;;
18503;SDS011;9381;54.244;10.074;2023-07-22T03:02:21;8.45;;;4.70;;
18503;SDS011;9381;54.244;10.074;2023-07-22T03:07:21;7.38;;;5.30;;
18503;SDS011;9381;54.244;10.074;2023-07-22T03:12:22;8.90;;;4.78;;
18503;SDS011;9381;54.244;10.074;2023-07-22T03:17:22;6.67;;;4.60;;
18503;SDS011;9381;54.244;10.074;2023-07-22T03:22:22;5.93;;;4.13;;
18503;SDS011;9381;54.244;10.074;2023-07-22T03:27:23;6.00;;;4.32;;
18503;SDS011;9381;54.244;10.074;2023-07-22T03:32:23;8.20;;;4.90;;
18503;SDS011;9381;54.244;10.074;2023-07-22T03:37:23;9.45;;;4.57;;
18503;SDS011;9381;54.244;10.074;2023-07-22T03:42:24;7.90;;;4.13;;
18503;SDS011;9381;54.244;10.074;2023-07-22T03:47:24;8.23;;;4.47;;
18503;SDS011;9381;54.244;10.074;2023-07-22T03:52:24;8.00;;;4.47;;
18503;SDS011;9381;54.244;10.074;2023-07-22T03:57:25;6.03;;;3.97;;
18503;SDS011;9381;54.244;10.074;2023-07-22T04:02:29;7.80;;;4.43;;
18503;SDS011;9381;54.244;10.074;2023-07-22T04:07:29;5.53;;;3.90;;
18503;SDS011;9381;54.244;10.074;2023-07-22T04:12:29;8.70;;;4.53;;
18503;SDS011;9381;54.244;10.074;2023-07-22T04:17:30;7.37;;;3.70;;
18503;SDS011;9381;54.244;10.074;2023-07-22T04:22:30;7.47;;;4.23;;
18503;SDS011;9381;54.244;10.074;2023-07-22T04:27:30;5.95;;;4.03;;
18503;SDS011;9381;54.244;10.074;2023-07-22T04:32:31;7.97;;;3.37;;
18503;SDS011;9381;54.244;10.074;2023-07-22T04:37:32;4.20;;;3.78;;
18503;SDS011;9381;54.244;10.074;2023-07-22T04:42:32;7.60;;;3.97;;
18503;SDS011;9381;54.244;10.074;2023-07-22T04:47:32;7.13;;;4.15;;
18503;SDS011;9381;54.244;10.074;2023-07-22T04:52:32;7.97;;;4.45;;
18503;SDS011;9381;54.244;10.074;2023-07-22T04:57:33;7.53;;;4.13;;
18503;SDS011;9381;54.244;10.074;2023-07-22T05:02:34;7.50;;;3.73;;
18503;SDS011;9381;54.244;10.074;2023-07-22T05:07:34;7.17;;;4.20;;
18503;SDS011;9381;54.244;10.074;2023-07-22T05:12:35;7.63;;;4.10;;
18503;SDS011;9381;54.244;10.074;2023-07-22T05:17:35;6.28;;;3.33;;
18503;SDS011;9381;54.244;10.074;2023-07-22T05:22:36;6.18;;;3.35;;
18503;SDS011;9381;54.244;10.074;2023-07-22T05:27:37;6.60;;;3.57;;
18503;SDS011;9381;54.244;10.074;2023-07-22T05:32:37;6.13;;;3.73;;
18503;SDS011;9381;54.244;10.074;2023-07-22T05:37:38;6.90;;;3.60;;
18503;SDS011;9381;54.244;10.074;2023-07-22T05:42:38;6.45;;;3.38;;
18503;SDS011;9381;54.244;10.074;2023-07-22T05:47:38;5.47;;;2.90;;
18503;SDS011;9381;54.244;10.074;2023-07-22T05:52:39;6.40;;;3.47;;
18503;SDS011;9381;54.244;10.074;2023-07-22T05:57:39;4.28;;;3.05;;
18503;SDS011;9381;54.244;10.074;2023-07-22T06:02:39;2.97;;;2.63;;
18503;SDS011;9381;54.244;10.074;2023-07-22T06:07:40;3.20;;;2.57;;
18503;SDS011;9381;54.244;10.074;2023-07-22T06:12:40;5.10;;;2.95;;
18503;SDS011;9381;54.244;10.074;2023-07-22T06:17:41;2.77;;;2.40;;
18503;SDS011;9381;54.244;10.074;2023-07-22T06:22:41;3.15;;;2.40;;
18503;SDS011;9381;54.244;10.074;2023-07-22T06:27:42;6.60;;;2.73;;
18503;SDS011;9381;54.244;10.074;2023-07-22T06:32:43;5.20;;;3.03;;
18503;SDS011;9381;54.244;10.074;2023-07-22T06:37:43;3.33;;;2.63;;
18503;SDS011;9381;54.244;10.074;2023-07-22T06:42:44;3.67;;;2.77;;
18503;SDS011;9381;54.244;10.074;2023-07-22T06:47:44;3.53;;;2.42;;
18503;SDS011;9381;54.244;10.074;2023-07-22T06:52:45;4.23;;;2.70;;
18503;SDS011;9381;54.244;10.074;2023-07-22T06:57:47;5.25;;;2.90;;
18503;SDS011;9381;54.244;10.074;2023-07-22T07:02:48;2.93;;;2.33;;
18503;SDS011;9381;54.244;10.074;2023-07-22T07:07:50;2.73;;;1.80;;
18503;SDS011;9381;54.244;10.074;2023-07-22T07:12:50;2.78;;;1.67;;
18503;SDS011;9381;54.244;10.074;2023-07-22T07:17:50;2.92;;;1.50;;
18503;SDS011;9381;54.244;10.074;2023-07-22T07:22:51;2.38;;;1.50;;
18503;SDS011;9381;54.244;10.074;2023-07-22T07:27:51;2.88;;;1.50;;
18503;SDS011;9381;54.244;10.074;2023-07-22T07:32:51;3.20;;;1.52;;
18503;SDS011;9381;54.244;10.074;2023-07-22T07:37:51;5.38;;;1.50;;
18503;SDS011;9381;54.244;10.074;2023-07-22T07:42:52;5.25;;;1.48;;
18503;SDS011;9381;54.244;10.074;2023-07-22T07:47:53;3.37;;;1.57;;
18503;SDS011;9381;54.244;10.074;2023-07-22T07:52:53;3.08;;;1.42;;
18503;SDS011;9381;54.244;10.074;2023-07-22T07:57:54;1.88;;;1.20;;
18503;SDS011;9381;54.244;10.074;2023-07-22T08:02:54;4.73;;;1.60;;
18503;SDS011;9381;54.244;10.074;2023-07-22T08:07:55;1.90;;;1.43;;
18503;SDS011;9381;54.244;10.074;2023-07-22T08:12:55;2.97;;;1.40;;
18503;SDS011;9381;54.244;10.074;2023-07-22T08:17:55;2.50;;;1.03;;
18503;SDS011;9381;54.244;10.074;2023-07-22T08:22:56;3.90;;;1.25;;
18503;SDS011;9381;54.244;10.074;2023-07-22T08:27:56;3.27;;;1.37;;
18503;SDS011;9381;54.244;10.074;2023-07-22T08:32:56;2.40;;;1.43;;
18503;SDS011;9381;54.244;10.074;2023-07-22T08:37:57;2.00;;;1.00;;
18503;SDS011;9381;54.244;10.074;2023-07-22T08:42:57;2.47;;;0.98;;
18503;SDS011;9381;54.244;10.074;2023-07-22T08:47:58;1.87;;;1.00;;
18503;SDS011;9381;54.244;10.074;2023-07-22T08:52:59;4.20;;;1.70;;
18503;SDS011;9381;54.244;10.074;2023-07-22T08:58:01;3.10;;;1.30;;
18503;SDS011;9381;54.244;10.074;2023-07-22T09:03:02;2.00;;;1.27;;
18503;SDS011;9381;54.244;10.074;2023-07-22T09:08:06;2.83;;;1.13;;
18503;SDS011;9381;54.244;10.074;2023-07-22T09:13:07;2.10;;;1.30;;
18503;SDS011;9381;54.244;10.074;2023-07-22T09:18:07;2.73;;;1.23;;
18503;SDS011;9381;54.244;10.074;2023-07-22T09:23:08;2.73;;;1.20;;
18503;SDS011;9381;54.244;10.074;2023-07-22T09:28:08;2.65;;;1.10;;
18503;SDS011;9381;54.244;10.074;2023-07-22T09:33:21;2.47;;;1.40;;
18503;SDS011;9381;54.244;10.074;2023-07-22T09:38:22;3.43;;;1.23;;
18503;SDS011;9381;54.244;10.074;2023-07-22T09:43:24;2.97;;;1.23;;
18503;SDS011;9381;54.244;10.074;2023-07-22T09:48:24;5.22;;;1.40;;
18503;SDS011;9381;54.244;10.074;2023-07-22T09:53:25;4.10;;;1.40;;
18503;SDS011;9381;54.244;10.074;2023-07-22T09:58:25;2.17;;;1.23;;
18503;SDS011;9381;54.244;10.074;2023-07-22T10:03:29;4.33;;;1.43;;
18503;SDS011;9381;54.244;10.074;2023-07-22T10:08:30;2.93;;;1.27;;
18503;SDS011;9381;54.244;10.074;2023-07-22T10:13:34;2.73;;;1.03;;
18503;SDS011;9381;54.244;10.074;2023-07-22T10:18:35;2.90;;;1.77;;
18503;SDS011;9381;54.244;10.074;2023-07-22T10:23:37;2.50;;;1.27;;
18503;SDS011;9381;54.244;10.074;2023-07-22T10:28:38;2.77;;;1.40;;
18503;SDS011;9381;54.244;10.074;2023-07-22T10:33:40;2.23;;;1.40;;
18503;SDS011;9381;54.244;10.074;2023-07-22T10:38:41;3.63;;;1.70;;
18503;SDS011;9381;54.244;10.074;2023-07-22T10:43:41;2.27;;;1.60;;
18503;SDS011;9381;54.244;10.074;2023-07-22T10:48:41;3.97;;;1.33;;
18503;SDS011;9381;54.244;10.074;2023-07-22T10:53:43;3.90;;;1.53;;
18503;SDS011;9381;54.244;10.074;2023-07-22T11:14:37;3.97;;;1.30;;
18503;SDS011;9381;54.244;10.074;2023-07-22T11:19:39;2.43;;;1.30;;
18503;SDS011;9381;54.244;10.074;2023-07-22T11:24:40;2.40;;;1.00;;
18503;SDS011;9381;54.244;10.074;2023-07-22T11:29:41;1.50;;;1.00;;
18503;SDS011;9381;54.244;10.074;2023-07-22T11:34:41;4.10;;;1.23;;
18503;SDS011;9381;54.244;10.074;2023-07-22T11:39:41;3.70;;;1.50;;
18503;SDS011;9381;54.244;10.074;2023-07-22T11:44:43;1.83;;;1.30;;
18503;SDS011;9381;54.244;10.074;2023-07-22T11:49:47;2.57;;;1.27;;
18503;SDS011;9381;54.244;10.074;2023-07-22T11:54:48;5.77;;;1.73;;
18503;SDS011;9381;54.244;10.074;2023-07-22T11:59:49;4.22;;;1.35;;
18503;SDS011;9381;54.244;10.074;2023-07-22T12:05:00;1.90;;;1.43;;
18503;SDS011;9381;54.244;10.074;2023-07-22T12:10:05;3.53;;;1.37;;
18503;SDS011;9381;54.244;10.074;2023-07-22T12:20:18;1.77;;;1.37;;
18503;SDS011;9381;54.244;10.074;2023-07-22T12:25:18;3.00;;;1.67;;
18503;SDS011;9381;54.244;10.074;2023-07-22T12:30:19;3.28;;;1.73;;
18503;SDS011;9381;54.244;10.074;2023-07-22T12:35:19;2.57;;;1.70;;
18503;SDS011;9381;54.244;10.074;2023-07-22T12:40:20;2.20;;;1.60;;
18503;SDS011;9381;54.244;10.074;2023-07-22T12:45:20;2.10;;;1.50;;
18503;SDS011;9381;54.244;10.074;2023-07-22T12:50:21;2.33;;;1.42;;
18503;SDS011;9381;54.244;10.074;2023-07-22T12:55:22;3.50;;;2.10;;
18503;SDS011;9381;54.244;10.074;2023-07-22T13:00:22;4.47;;;1.87;;
18503;SDS011;9381;54.244;10.074;2023-07-22T13:05:23;2.73;;;1.60;;
18503;SDS011;9381;54.244;10.074;2023-07-22T13:10:23;3.70;;;1.70;;
18503;SDS011;9381;54.244;10.074;2023-07-22T13:15:25;4.50;;;2.00;;
18503;SDS011;9381;54.244;10.074;2023-07-22T13:20:25;4.23;;;1.80;;
18503;SDS011;9381;54.244;10.074;2023-07-22T13:25:26;4.23;;;1.97;;
18503;SDS011;9381;54.244;10.074;2023-07-22T13:30:26;3.87;;;1.97;;
18503;SDS011;9381;54.244;10.074;2023-07-22T13:35:26;4.27;;;2.43;;
18503;SDS011;9381;54.244;10.074;2023-07-22T13:40:27;5.60;;;2.88;;
18503;SDS011;9381;54.244;10.074;2023-07-22T13:45:27;3.30;;;2.47;;
18503;SDS011;9381;54.244;10.074;2023-07-22T13:50:27;3.40;;;2.83;;
18503;SDS011;9381;54.244;10.074;2023-07-22T13:55:28;6.57;;;3.80;;
18503;SDS011;9381;54.244;10.074;2023-07-22T14:00:28;8.87;;;4.37;;
18503;SDS011;9381;54.244;10.074;2023-07-22T14:05:29;6.87;;;4.90;;
18503;SDS011;9381;54.244;10.074;2023-07-22T14:10:29;10.20;;;5.93;;
18503;SDS011;9381;54.244;10.074;2023-07-22T14:15:30;9.00;;;6.30;;
18503;SDS011;9381;54.244;10.074;2023-07-22T14:20:30;8.60;;;5.87;;
18503;SDS011;9381;54.244;10.074;2023-07-22T14:25:30;8.63;;;6.70;;
18503;SDS011;9381;54.244;10.074;2023-07-22T14:30:31;9.55;;;6.43;;
18503;SDS011;9381;54.244;10.074;2023-07-22T14:35:32;10.30;;;5.20;;
18503;SDS011;9381;54.244;10.074;2023-07-22T14:40:33;10.33;;;6.30;;
18503;SDS011;9381;54.244;10.074;2023-07-22T14:45:33;8.25;;;6.07;;
18503;SDS011;9381;54.244;10.074;2023-07-22T14:50:33;10.00;;;6.20;;
18503;SDS011;9381;54.244;10.074;2023-07-22T14:55:34;9.57;;;6.25;;
18503;SDS011;9381;54.244;10.074;2023-07-22T15:00:34;8.90;;;6.37;;
18503;SDS011;9381;54.244;10.074;2023-07-22T15:05:34;10.27;;;6.60;;
18503;SDS011;9381;54.244;10.074;2023-07-22T15:10:34;7.83;;;6.27;;
18503;SDS011;9381;54.244;10.074;2023-07-22T15:15:35;9.67;;;7.13;;
18503;SDS011;9381;54.244;10.074;2023-07-22T15:20:35;9.68;;;6.30;;
18503;SDS011;9381;54.244;10.074;2023-07-22T15:25:36;10.63;;;6.80;;
18503;SDS011;9381;54.244;10.074;2023-07-22T15:30:36;11.70;;;7.37;;
18503;SDS011;9381;54.244;10.074;2023-07-22T15:35:37;9.67;;;7.00;;
18503;SDS011;9381;54.244;10.074;2023-07-22T15:40:37;11.93;;;7.13;;
18503;SDS011;9381;54.244;10.074;2023-07-22T15:45:37;11.20;;;7.47;;
18503;SDS011;9381;54.244;10.074;2023-07-22T15:50:37;11.32;;;6.57;;
18503;SDS011;9381;54.244;10.074;2023-07-22T15:55:38;11.00;;;6.57;;
18503;SDS011;9381;54.244;10.074;2023-07-22T16:00:38;10.13;;;6.55;;
18503;SDS011;9381;54.244;10.074;2023-07-22T16:05:38;9.90;;;7.33;;
18503;SDS011;9381;54.244;10.074;2023-07-22T16:10:39;10.82;;;7.07;;
18503;SDS011;9381;54.244;10.074;2023-07-22T16:15:39;11.23;;;7.30;;
18503;SDS011;9381;54.244;10.074;2023-07-22T16:20:40;14.30;;;7.50;;
18503;SDS011;9381;54.244;10.074;2023-07-22T16:25:41;12.73;;;7.87;;
18503;SDS011;9381;54.244;10.074;2023-07-22T16:30:41;11.93;;;7.83;;
18503;SDS011;9381;54.244;10.074;2023-07-22T16:35:42;11.30;;;7.13;;
18503;SDS011;9381;54.244;10.074;2023-07-22T16:40:42;11.03;;;7.97;;
18503;SDS011;9381;54.244;10.074;2023-07-22T16:45:43;13.03;;;7.33;;
18503;SDS011;9381;54.244;10.074;2023-07-22T16:50:44;12.77;;;7.90;;
18503;SDS011;9381;54.244;10.074;2023-07-22T16:55:44;14.60;;;9.25;;
18503;SDS011;9381;54.244;10.074;2023-07-22T17:00:44;16.03;;;9.10;;
18503;SDS011;9381;54.244;10.074;2023-07-22T17:05:48;17.10;;;9.23;;
18503;SDS011;9381;54.244;10.074;2023-07-22T17:10:48;10.10;;;7.20;;
18503;SDS011;9381;54.244;10.074;2023-07-22T17:15:48;12.15;;;7.80;;
18503;SDS011;9381;54.244;10.074;2023-07-22T17:20:49;10.65;;;8.13;;
18503;SDS011;9381;54.244;10.074;2023-07-22T17:25:49;11.67;;;7.43;;
18503;SDS011;9381;54.244;10.074;2023-07-22T17:30:50;11.17;;;7.73;;
18503;SDS011;9381;54.244;10.074;2023-07-22T17:35:50;9.10;;;7.10;;
18503;SDS011;9381;54.244;10.074;2023-07-22T17:40:51;10.07;;;7.83;;
18503;SDS011;9381;54.244;10.074;2023-07-22T17:45:51;12.40;;;8.23;;
18503;SDS011;9381;54.244;10.074;2023-07-22T17:50:51;11.65;;;8.05;;
18503;SDS011;9381;54.244;10.074;2023-07-22T17:55:52;12.43;;;8.27;;
18503;SDS011;9381;54.244;10.074;2023-07-22T18:00:52;13.98;;;9.00;;
18503;SDS011;9381;54.244;10.074;2023-07-22T18:05:52;10.63;;;8.20;;
18503;SDS011;9381;54.244;10.074;2023-07-22T18:10:53;10.83;;;7.27;;
18503;SDS011;9381;54.244;10.074;2023-07-22T18:15:53;12.45;;;7.70;;
18503;SDS011;9381;54.244;10.074;2023-07-22T18:20:53;10.00;;;7.93;;
18503;SDS011;9381;54.244;10.074;2023-07-22T18:25:53;15.27;;;9.50;;
18503;SDS011;9381;54.244;10.074;2023-07-22T18:30:54;11.60;;;8.23;;
18503;SDS011;9381;54.244;10.074;2023-07-22T18:35:55;12.03;;;9.00;;
18503;SDS011;9381;54.244;10.074;2023-07-22T18:40:55;13.70;;;9.73;;
18503;SDS011;9381;54.244;10.074;2023-07-22T18:45:56;14.10;;;9.60;;
18503;SDS011;9381;54.244;10.074;2023-07-22T18:50:56;11.90;;;9.55;;
18503;SDS011;9381;54.244;10.074;2023-07-22T18:55:56;11.93;;;9.83;;
18503;SDS011;9381;54.244;10.074;2023-07-22T19:00:57;16.23;;;11.63;;
18503;SDS011;9381;54.244;10.074;2023-07-22T19:05:57;13.55;;;10.40;;
18503;SDS011;9381;54.244;10.074;2023-07-22T19:10:57;12.07;;;10.70;;
18503;SDS011;9381;54.244;10.074;2023-07-22T19:15:58;16.40;;;11.05;;
18503;SDS011;9381;54.244;10.074;2023-07-22T19:20:58;14.23;;;12.73;;
18503;SDS011;9381;54.244;10.074;2023-07-22T19:26:01;14.10;;;11.50;;
18503;SDS011;9381;54.244;10.074;2023-07-22T19:31:01;16.90;;;12.43;;
18503;SDS011;9381;54.244;10.074;2023-07-22T19:36:05;14.03;;;12.53;;
18503;SDS011;9381;54.244;10.074;2023-07-22T19:41:07;15.47;;;11.83;;
18503;SDS011;9381;54.244;10.074;2023-07-22T19:46:10;15.03;;;12.43;;
18503;SDS011;9381;54.244;10.074;2023-07-22T19:51:12;16.10;;;12.23;;
18503;SDS011;9381;54.244;10.074;2023-07-22T19:56:16;14.57;;;12.37;;
18503;SDS011;9381;54.244;10.074;2023-07-22T20:01:16;16.50;;;13.67;;
18503;SDS011;9381;54.244;10.074;2023-07-22T20:06:16;18.17;;;15.50;;
18503;SDS011;9381;54.244;10.074;2023-07-22T20:11:17;17.63;;;14.73;;
18503;SDS011;9381;54.244;10.074;2023-07-22T20:16:18;17.93;;;14.20;;
18503;SDS011;9381;54.244;10.074;2023-07-22T20:21:19;18.58;;;15.30;;
18503;SDS011;9381;54.244;10.074;2023-07-22T20:26:19;20.48;;;15.07;;
18503;SDS011;9381;54.244;10.074;2023-07-22T20:31:19;17.40;;;14.27;;
18503;SDS011;9381;54.244;10.074;2023-07-22T20:36:19;19.37;;;14.00;;
18503;SDS011;9381;54.244;10.074;2023-07-22T20:41:20;18.15;;;14.27;;
18503;SDS011;9381;54.244;10.074;2023-07-22T20:46:20;16.20;;;13.75;;
18503;SDS011;9381;54.244;10.074;2023-07-22T20:51:20;19.52;;;15.05;;
18503;SDS011;9381;54.244;10.074;2023-07-22T20:56:21;19.27;;;15.40;;
18503;SDS011;9381;54.244;10.074;2023-07-22T21:01:23;17.20;;;14.30;;
18503;SDS011;9381;54.244;10.074;2023-07-22T21:06:23;21.23;;;15.03;;
18503;SDS011;9381;54.244;10.074;2023-07-22T21:11:43;17.30;;;14.90;;
18503;SDS011;9381;54.244;10.074;2023-07-22T21:16:43;20.87;;;17.23;;
18503;SDS011;9381;54.244;10.074;2023-07-22T21:21:44;23.83;;;17.17;;
18503;SDS011;9381;54.244;10.074;2023-07-22T21:26:44;22.63;;;17.87;;
18503;SDS011;9381;54.244;10.074;2023-07-22T21:31:45;23.80;;;18.10;;
18503;SDS011;9381;54.244;10.074;2023-07-22T21:36:45;22.80;;;18.97;;
18503;SDS011;9381;54.244;10.074;2023-07-22T21:41:45;23.02;;;18.73;;
18503;SDS011;9381;54.244;10.074;2023-07-22T21:46:46;26.93;;;20.57;;
18503;SDS011;9381;54.244;10.074;2023-07-22T21:51:47;22.90;;;18.50;;
18503;SDS011;9381;54.244;10.074;2023-07-22T21:56:47;26.42;;;19.10;;
18503;SDS011;9381;54.244;10.074;2023-07-22T22:01:47;25.45;;;19.52;;
18503;SDS011;9381;54.244;10.074;2023-07-22T22:06:47;24.40;;;17.98;;
18503;SDS011;9381;54.244;10.074;2023-07-22T22:11:48;20.13;;;17.30;;
18503;SDS011;9381;54.244;10.074;2023-07-22T22:16:48;25.35;;;18.80;;
18503;SDS011;9381;54.244;10.074;2023-07-22T22:21:48;23.05;;;17.23;;
18503;SDS011;9381;54.244;10.074;2023-07-22T22:26:48;22.50;;;15.88;;
18503;SDS011;9381;54.244;10.074;2023-07-22T22:31:49;18.92;;;15.25;;
18503;SDS011;9381;54.244;10.074;2023-07-22T22:36:49;22.33;;;15.63;;
18503;SDS011;9381;54.244;10.074;2023-07-22T22:41:49;18.38;;;13.88;;
18503;SDS011;9381;54.244;10.074;2023-07-22T22:46:49;21.13;;;15.15;;
18503;SDS011;9381;54.244;10.074;2023-07-22T22:51:50;18.40;;;14.70;;
18503;SDS011;9381;54.244;10.074;2023-07-22T22:56:50;21.80;;;15.27;;
18503;SDS011;9381;54.244;10.074;2023-07-22T23:01:50;17.65;;;14.07;;
18503;SDS011;9381;54.244;10.074;2023-07-22T23:06:51;16.10;;;13.50;;
18503;SDS011;9381;54.244;10.074;2023-07-22T23:11:51;16.75;;;13.95;;
18503;SDS011;9381;54.244;10.074;2023-07-22T23:16:52;17.67;;;12.77;;
18503;SDS011;9381;54.244;10.074;2023-07-22T23:21:52;14.90;;;12.17;;
18503;SDS011;9381;54.244;10.074;2023-07-22T23:26:52;17.05;;;12.88;;
18503;SDS011;9381;54.244;10.074;2023-07-22T23:31:53;18.58;;;12.75;;
18503;SDS011;9381;54.244;10.074;2023-07-22T23:36:53;13.63;;;11.57;;
18503;SDS011;9381;54.244;10.074;2023-07-22T23:41:53;13.88;;;10.82;;
18503;SDS011;9381;54.244;10.074;2023-07-22T23:46:54;16.63;;;10.23;;
18503;SDS011;9381;54.244;10.074;2023-07-22T23:51:54;14.05;;;10.32;;
18503;SDS011;9381;54.244;10.074;2023-07-22T23:56:54;15.93;;;10.27;;
